Time;durP1;ratioP1;P1;durP2;ratioP2;P2;SDS_P1;SDS_P2;PMS_P1;PMS_P2;Temp;Humidity;BMP_temperature;BMP_pressure;BME280_temperature;BME280_humidity;BME280_pressure;Samples;Min_cycle;Max_cycle;Signal;HPM_P1;HPM_P2
2022/01/30 00:01:38;;;;;;;;;;;;;;;-3.47;85.90;98517.36;1631263;86;21692;-73
2022/01/30 00:04:05;;;;;;;;;;;;;;;-3.45;85.81;98520.05;1631161;88;20176;-73
2022/01/30 00:06:31;;;;;;;;;;;;;;;-3.43;85.86;98513.09;1630972;86;20208;-72
2022/01/30 00:08:57;;;;;;;;;;;;;;;-3.43;85.67;98512.56;1630879;88;20138;-72
2022/01/30 00:11:28;;;;;;;;;;;;;;;-3.41;85.73;98503.73;1631008;88;21135;-72
2022/01/30 00:13:51;;;;;;;;;;;;;;;-3.39;85.74;98503.48;1630454;88;20106;-72
2022/01/30 00:16:22;;;;;;;;;;;;;;;-3.40;85.68;98494.61;1631113;88;20117;-72
2022/01/30 00:21:39;;;;;;;;;;;;;;;-3.38;85.90;98487.66;1631212;88;20174;-73
2022/01/30 00:24:28;;;;;;;;;;;;;;;-3.40;85.85;98470.47;1630314;88;21126;-73
2022/01/30 00:26:35;;;;;;;;;;;;;;;-3.38;85.95;98458.14;1628412;88;20206;-73
2022/01/30 00:29:01;;;;;;;;;;;;;;;-3.37;86.04;98451.17;1631068;88;20199;-74
2022/01/30 00:31:27;;;;;;;;;;;;;;;-3.36;85.98;98451.45;1630831;88;20477;-75
2022/01/30 00:33:54;;;;;;;;;;;;;;;-3.36;85.79;98442.06;1631000;88;20138;-75
2022/01/30 00:36:20;;;;;;;;;;;;;;;-3.36;85.70;98433.20;1631244;88;21107;-75
2022/01/30 00:38:46;;;;;;;;;;;;;;;-3.34;85.70;98420.34;1630877;88;20129;-77
2022/01/30 00:41:13;;;;;;;;;;;;;;;-3.34;85.75;98417.13;1630938;88;20158;-74
2022/01/30 00:43:39;;;;;;;;;;;;;;;-3.32;85.46;98413.66;1630919;88;20195;-73
2022/01/30 00:46:05;;;;;;;;;;;;;;;-3.31;85.21;98401.05;1631124;88;20154;-77
2022/01/30 00:48:32;;;;;;;;;;;;;;;-3.29;85.16;98388.72;1631218;86;21111;-76
2022/01/30 00:51:00;;;;;;;;;;;;;;;-3.27;85.06;98379.88;1631089;88;21202;-77
2022/01/30 00:53:26;;;;;;;;;;;;;;;-3.26;84.92;98370.23;1631152;88;20181;-80
2022/01/30 00:55:52;;;;;;;;;;;;;;;-3.25;84.55;98362.46;1631482;88;20174;-80
2022/01/30 00:58:18;;;;;;;;;;;;;;;-3.23;84.45;98346.10;1631328;88;20181;-80
2022/01/30 01:00:44;;;;;;;;;;;;;;;-3.22;84.04;98327.05;1622840;88;21117;-78
2022/01/30 01:03:11;;;;;;;;;;;;;;;-3.19;84.07;98316.34;1617626;88;20107;-78
2022/01/30 01:05:38;;;;;;;;;;;;;;;-3.18;83.28;98305.88;1617881;88;20186;-78
2022/01/30 01:08:21;;;;;;;;;;;;;;;-3.16;83.16;98301.06;1617450;87;20199;-79
2022/01/30 01:10:55;;;;;;;;;;;;;;;-3.14;83.12;98295.72;1617171;88;20150;-78
2022/01/30 01:13:40;;;;;;;;;;;;;;;-3.13;82.87;98281.76;1617334;88;21132;-78
2022/01/30 01:24:01;;;;;;;;;;;;;;;-3.07;81.07;98257.91;1617718;88;20147;-82
2022/01/30 01:26:26;;;;;;;;;;;;;;;-3.04;80.76;98250.15;1617670;87;21931;-80
2022/01/30 01:28:53;;;;;;;;;;;;;;;-3.03;80.57;98234.31;1617479;88;20150;-82
2022/01/30 01:31:19;;;;;;;;;;;;;;;-3.00;80.15;98244.53;1617551;88;20461;-83
2022/01/30 01:36:14;;;;;;;;;;;;;;;-2.95;79.63;98235.70;1617649;87;20159;-84
2022/01/30 01:38:41;;;;;;;;;;;;;;;-2.94;78.58;98241.34;1617567;88;21145;-83
2022/01/30 01:41:11;;;;;;;;;;;;;;;-2.91;78.47;98238.67;1617837;88;20630;-77
2022/01/30 01:43:39;;;;;;;;;;;;;;;-2.88;77.92;98244.84;1617601;88;20458;-78
2022/01/30 01:46:13;;;;;;;;;;;;;;;-2.88;78.21;98233.56;1617656;88;21971;-76
2022/01/30 01:48:35;;;;;;;;;;;;;;;-2.87;78.62;98224.97;1617894;88;20147;-76
2022/01/30 01:51:07;;;;;;;;;;;;;;;-2.91;78.99;98215.31;1617776;87;20984;-76
2022/01/30 01:53:34;;;;;;;;;;;;;;;-2.93;79.80;98211.27;1638784;87;20153;-75
2022/01/30 01:56:00;;;;;;;;;;;;;;;-2.98;80.28;98195.94;1644138;87;20173;-75
2022/01/30 01:58:27;;;;;;;;;;;;;;;-3.00;80.79;98192.71;1644117;87;20157;-76
2022/01/30 02:01:04;;;;;;;;;;;;;;;-3.04;81.34;98179.00;1633561;87;20200;-76
2022/01/30 02:03:33;;;;;;;;;;;;;;;-3.07;81.60;98176.03;1659827;85;21200;-75
2022/01/30 02:06:02;;;;;;;;;;;;;;;-3.09;81.68;98166.08;1631685;86;20151;-75
2022/01/30 02:08:41;;;;;;;;;;;;;;;-3.10;82.35;98159.91;1631328;86;20433;-75
2022/01/30 02:27:03;;;;;;;;;;;;;;;-3.37;91.50;98096.16;1623433;87;20182;-72
2022/01/30 02:29:30;;;;;;;;;;;;;;;-3.43;92.66;98082.44;1623552;88;21129;-71
2022/01/30 02:31:58;;;;;;;;;;;;;;;-3.47;93.73;98081.37;1623542;88;20162;-72
2022/01/30 02:34:27;;;;;;;;;;;;;;;-3.49;94.20;98068.22;1605344;88;20457;-72
2022/01/30 02:36:54;;;;;;;;;;;;;;;-3.50;94.41;98051.84;1622991;87;20201;-72
2022/01/30 02:39:21;;;;;;;;;;;;;;;-3.50;94.40;98047.83;1623612;87;20493;-72
2022/01/30 02:41:48;;;;;;;;;;;;;;;-3.48;94.14;98034.15;1623524;88;22605;-70
2022/01/30 02:44:23;;;;;;;;;;;;;;;-3.47;93.90;98039.78;1623490;88;20254;-71
2022/01/30 02:46:51;;;;;;;;;;;;;;;-3.46;93.74;98009.18;1623573;88;20185;-71
2022/01/30 02:52:03;;;;;;;;;;;;;;;-3.40;93.03;98005.45;1623778;88;20202;-71
2022/01/30 02:54:29;;;;;;;;;;;;;;;-3.36;92.17;97987.75;1623489;88;21226;-71
2022/01/30 02:56:55;;;;;;;;;;;;;;;-3.29;91.50;97976.77;1623591;88;20129;-71
2022/01/30 02:59:22;;;;;;;;;;;;;;;-3.24;91.09;97966.05;1623646;88;20172;-74
2022/01/30 03:01:48;;;;;;;;;;;;;;;-3.19;90.88;97962.03;1623525;87;20177;-73
2022/01/30 03:04:15;;;;;;;;;;;;;;;-3.16;90.86;97966.87;1665894;85;20199;-73
2022/01/30 03:06:42;;;;;;;;;;;;;;;-3.12;91.31;97954.54;1668406;85;20621;-73
2022/01/30 03:09:10;;;;;;;;;;;;;;;-3.11;92.13;97961.52;1622969;88;20142;-73
2022/01/30 03:11:37;;;;;;;;;;;;;;;-3.12;92.94;97919.11;1623588;88;20107;-73
2022/01/30 03:14:04;;;;;;;;;;;;;;;-3.14;94.33;97948.63;1623669;88;20170;-73
2022/01/30 03:16:30;;;;;;;;;;;;;;;-3.18;95.55;97962.31;1623802;88;20472;-73
2022/01/30 03:18:57;;;;;;;;;;;;;;;-3.22;96.57;97927.67;1623695;87;21704;-73
2022/01/30 03:21:24;;;;;;;;;;;;;;;-3.27;97.53;97913.71;1623529;88;20151;-74
2022/01/30 03:23:50;;;;;;;;;;;;;;;-3.29;97.97;97916.39;1623720;88;20179;-75
2022/01/30 03:26:16;;;;;;;;;;;;;;;-3.31;98.75;97911.29;1623943;88;20178;-75
2022/01/30 03:28:47;;;;;;;;;;;;;;;-3.33;99.45;97906.72;1619447;88;20218;-75
2022/01/30 03:31:23;;;;;;;;;;;;;;;-3.35;100.00;97912.89;1623763;86;20560;-75
2022/01/30 03:33:51;;;;;;;;;;;;;;;-3.38;100.00;97903.49;1623435;88;20171;-74
2022/01/30 03:36:19;;;;;;;;;;;;;;;-3.39;100.00;97894.37;1622870;88;20178;-74
2022/01/30 03:38:45;;;;;;;;;;;;;;;-3.41;100.00;97889.27;1604852;88;20639;-74
2022/01/30 03:41:12;;;;;;;;;;;;;;;-3.43;100.00;97863.23;1623463;88;20480;-74
2022/01/30 03:43:39;;;;;;;;;;;;;;;-3.43;100.00;97855.19;1623565;87;21141;-73
2022/01/30 03:46:06;;;;;;;;;;;;;;;-3.44;100.00;97865.66;1623774;88;20437;-73
2022/01/30 03:48:33;;;;;;;;;;;;;;;-3.45;100.00;97844.45;1623654;88;20142;-73
2022/01/30 03:51:04;;;;;;;;;;;;;;;-3.44;100.00;97840.16;1623447;88;20189;-73
2022/01/30 03:53:32;;;;;;;;;;;;;;;-3.45;100.00;97831.05;1623730;87;20214;-73
2022/01/30 03:55:59;;;;;;;;;;;;;;;-3.44;100.00;97829.97;1623563;88;21159;-73
2022/01/30 03:58:27;;;;;;;;;;;;;;;-3.45;100.00;97806.89;1623800;88;20172;-74
2022/01/30 04:00:53;;;;;;;;;;;;;;;-3.45;100.00;97806.36;1621745;88;20429;-75
2022/01/30 04:03:21;;;;;;;;;;;;;;;-3.45;100.00;97805.02;1618844;86;20175;-75
2022/01/30 04:05:50;;;;;;;;;;;;;;;-3.47;100.00;97803.17;1632238;87;20179;-74
2022/01/30 04:08:17;;;;;;;;;;;;;;;-3.48;100.00;97798.87;1617836;87;21232;-74
2022/01/30 04:10:57;;;;;;;;;;;;;;;-3.51;100.00;97790.02;1617135;88;20140;-74
2022/01/30 04:13:29;;;;;;;;;;;;;;;-3.57;100.00;97793.77;1617251;88;20559;-74
2022/01/30 04:16:00;;;;;;;;;;;;;;;-3.60;100.00;97788.94;1617854;88;21008;-73
2022/01/30 04:18:30;;;;;;;;;;;;;;;-3.66;100.00;97776.06;1616700;88;20170;-75
2022/01/30 04:21:01;;;;;;;;;;;;;;;-3.70;100.00;97762.11;1609648;87;21862;-74
2022/01/30 04:23:45;;;;;;;;;;;;;;;-3.73;100.00;97758.08;1604321;89;20185;-74
2022/01/30 04:26:19;;;;;;;;;;;;;;;-3.79;100.00;97752.45;1613863;88;20131;-73
2022/01/30 04:29:06;;;;;;;;;;;;;;;-3.82;100.00;97750.30;1616681;88;20107;-73
2022/01/30 04:31:42;;;;;;;;;;;;;;;-3.86;100.00;97741.17;1616111;88;20182;-73
2022/01/30 04:34:11;;;;;;;;;;;;;;;-3.89;100.00;97740.91;1616552;88;21127;-73
2022/01/30 04:37:00;;;;;;;;;;;;;;;-3.91;100.00;97725.62;1617573;88;20167;-73
2022/01/30 05:05:38;;;;;;;;;;;;;;;-3.90;100.00;97646.80;1620597;88;20223;-73
2022/01/30 05:07:34;;;;;;;;;;;;;;;-3.88;100.00;97656.73;1616191;87;20130;-74
2022/01/30 05:10:05;;;;;;;;;;;;;;;-3.86;100.00;97673.34;1623660;87;20182;-72
2022/01/30 05:12:55;;;;;;;;;;;;;;;-3.86;100.00;97637.16;1623406;88;20187;-74
2022/01/30 05:15:29;;;;;;;;;;;;;;;-3.82;100.00;97632.86;1623952;87;21162;-72
2022/01/30 05:18:04;;;;;;;;;;;;;;;-3.80;100.00;97644.13;1621723;88;20142;-73
2022/01/30 05:20:34;;;;;;;;;;;;;;;-3.78;100.00;97625.35;1615131;88;20181;-73
2022/01/30 05:23:06;;;;;;;;;;;;;;;-3.74;100.00;97626.42;1621813;88;20138;-74
2022/01/30 05:25:37;;;;;;;;;;;;;;;-3.71;100.00;97613.02;1623402;88;20429;-73
2022/01/30 05:28:12;;;;;;;;;;;;;;;-3.69;100.00;97609.52;1623601;88;21077;-74
2022/01/30 05:30:43;;;;;;;;;;;;;;;-3.68;100.00;97637.41;1622251;88;20151;-74
2022/01/30 05:33:12;;;;;;;;;;;;;;;-3.67;100.00;97593.97;1622726;88;20118;-74
2022/01/30 05:35:46;;;;;;;;;;;;;;;-3.66;100.00;97601.74;1621911;88;20198;-73
2022/01/30 05:38:21;;;;;;;;;;;;;;;-3.65;100.00;97589.14;1622342;88;20465;-74
2022/01/30 05:41:05;;;;;;;;;;;;;;;-3.62;100.00;97589.94;1620708;88;21089;-74
2022/01/30 05:43:40;;;;;;;;;;;;;;;-3.60;100.00;97582.42;1622429;88;20152;-73
2022/01/30 05:46:37;;;;;;;;;;;;;;;-3.57;100.00;97577.86;1623674;88;20413;-73
2022/01/30 05:49:02;;;;;;;;;;;;;;;-3.53;100.00;97576.23;1635373;87;20172;-74
2022/01/30 05:51:30;;;;;;;;;;;;;;;-3.52;100.00;97566.31;1621475;88;20206;-74
2022/01/30 05:54:08;;;;;;;;;;;;;;;-3.49;100.00;97567.11;1622935;86;21146;-75
2022/01/30 05:56:37;;;;;;;;;;;;;;;-3.49;100.00;97563.89;1623557;88;20126;-74
2022/01/30 05:59:05;;;;;;;;;;;;;;;-3.47;100.00;97557.71;1622681;88;20497;-75
2022/01/30 06:01:33;;;;;;;;;;;;;;;-3.44;100.00;97573.23;1623567;87;20156;-74
2022/01/30 06:04:01;;;;;;;;;;;;;;;-3.41;100.00;97557.13;1621792;88;20171;-73
2022/01/30 06:06:28;;;;;;;;;;;;;;;-3.41;100.00;97561.95;1624685;85;22509;-74
2022/01/30 06:09:12;;;;;;;;;;;;;;;-3.37;100.00;97554.16;1650224;87;20135;-72
2022/01/30 06:11:26;;;;;;;;;;;;;;;-3.36;100.00;97556.56;1648261;86;20135;-74
2022/01/30 06:13:52;;;;;;;;;;;;;;;-3.31;100.00;97550.38;1649954;87;20201;-74
2022/01/30 06:16:19;;;;;;;;;;;;;;;-3.24;100.00;97546.06;1650134;87;20172;-76
2022/01/30 06:18:46;;;;;;;;;;;;;;;-3.19;100.00;97537.98;1650120;87;22590;-74
2022/01/30 06:21:33;;;;;;;;;;;;;;;-3.12;100.00;97545.20;1650111;87;20145;-74
2022/01/30 06:24:10;;;;;;;;;;;;;;;-3.07;100.00;97539.27;1635991;87;20508;-81
2022/01/30 06:26:54;;;;;;;;;;;;;;;-3.00;100.00;97531.72;1647252;85;21887;-76
2022/01/30 06:29:41;;;;;;;;;;;;;;;-2.94;100.00;97525.78;1599561;88;20471;-75
2022/01/30 06:32:17;;;;;;;;;;;;;;;-2.89;100.00;97516.35;1574434;89;20164;-76
2022/01/30 06:35:02;;;;;;;;;;;;;;;-2.83;100.00;97504.47;1626028;87;20619;-77
2022/01/30 06:37:46;;;;;;;;;;;;;;;-2.78;100.00;97507.13;1623938;87;20179;-76
2022/01/30 06:40:18;;;;;;;;;;;;;;;-2.73;100.00;97505.75;1632158;85;20238;-76
2022/01/30 06:42:47;;;;;;;;;;;;;;;-2.67;100.00;97511.34;1626443;87;20172;-77
2022/01/30 06:45:32;;;;;;;;;;;;;;;-2.61;100.00;97496.53;1623537;88;21157;-74
2022/01/30 06:48:19;;;;;;;;;;;;;;;-2.54;100.00;97509.11;1623298;88;20150;-77
2022/01/30 06:50:52;;;;;;;;;;;;;;;-2.48;100.00;97516.84;1598235;88;20218;-77
2022/01/30 06:53:24;;;;;;;;;;;;;;;-2.43;100.00;97507.41;1623829;88;20142;-83
2022/01/30 06:56:09;;;;;;;;;;;;;;;-2.38;100.00;97503.88;1623410;88;20154;-82
2022/01/30 06:58:56;;;;;;;;;;;;;;;-2.34;100.00;97503.03;1623463;88;21125;-82
2022/01/30 07:01:41;;;;;;;;;;;;;;;-2.31;100.00;97494.14;1621634;88;20166;-81
2022/01/30 07:04:11;;;;;;;;;;;;;;;-2.28;100.00;97486.29;1608124;87;20153;-82
2022/01/30 07:07:03;;;;;;;;;;;;;;;-2.25;100.00;97494.33;1619281;88;20181;-75
2022/01/30 07:09:31;;;;;;;;;;;;;;;-2.14;100.00;97467.62;1621400;88;20202;-80
2022/01/30 07:11:59;;;;;;;;;;;;;;;-2.05;100.00;97453.27;1621641;88;21105;-84
2022/01/30 07:14:30;;;;;;;;;;;;;;;-1.98;100.00;97466.92;1620136;88;20211;-83
2022/01/30 07:16:56;;;;;;;;;;;;;;;-1.93;100.00;97457.45;1621671;88;20203;-85
2022/01/30 07:19:28;;;;;;;;;;;;;;;-1.87;100.00;97451.73;1621519;88;20158;-87
2022/01/30 07:21:54;;;;;;;;;;;;;;;-1.81;100.00;97451.14;1621506;87;20505;-81
2022/01/30 07:24:24;;;;;;;;;;;;;;;-1.77;100.00;97453.52;1621781;88;21152;-84
2022/01/30 07:26:51;;;;;;;;;;;;;;;-1.75;100.00;97441.92;1602971;88;37633;-82
2022/01/30 07:29:18;;;;;;;;;;;;;;;-1.71;100.00;97444.27;1621720;88;20143;-87
2022/01/30 07:31:46;;;;;;;;;;;;;;;-1.69;100.00;97436.71;1621729;88;20640;-80
2022/01/30 07:34:14;;;;;;;;;;;;;;;-1.66;100.00;97446.90;1621486;88;20182;-83
2022/01/30 07:36:42;;;;;;;;;;;;;;;-1.64;100.00;97436.66;1621374;88;21176;-85
2022/01/30 07:39:11;;;;;;;;;;;;;;;-1.60;100.00;97438.22;1621666;88;20182;-86
2022/01/30 07:41:47;;;;;;;;;;;;;;;-1.56;100.00;97436.56;1621751;88;20465;-85
2022/01/30 07:44:14;;;;;;;;;;;;;;;-1.52;100.00;97438.93;1621047;87;20178;-76
2022/01/30 07:46:44;;;;;;;;;;;;;;;-1.45;100.00;97437.48;1621496;88;20183;-76
2022/01/30 07:49:14;;;;;;;;;;;;;;;-1.35;100.00;97432.52;1620585;88;20138;-71
2022/01/30 07:51:46;;;;;;;;;;;;;;;-1.25;100.00;97428.89;1621620;88;20118;-77
2022/01/30 07:54:17;;;;;;;;;;;;;;;-1.20;100.00;97439.05;1621558;87;20155;-77
2022/01/30 07:56:51;;;;;;;;;;;;;;;-1.11;100.00;97444.55;1621293;88;20142;-76
2022/01/30 07:59:17;;;;;;;;;;;;;;;-1.04;100.00;97432.31;1621486;88;20485;-76
2022/01/30 08:01:48;;;;;;;;;;;;;;;-0.96;100.00;97434.90;1611056;88;20174;-77
2022/01/30 08:04:15;;;;;;;;;;;;;;;-0.88;100.00;97427.50;1621430;88;20144;-76
2022/01/30 08:06:53;;;;;;;;;;;;;;;-0.81;100.00;97426.59;1621392;87;20193;-76
2022/01/30 08:09:19;;;;;;;;;;;;;;;-0.71;100.00;97417.55;1621192;88;20754;-77
2022/01/30 08:11:52;;;;;;;;;;;;;;;-0.60;100.00;97427.06;1621610;87;20166;-76
2022/01/30 08:14:15;;;;;;;;;;;;;;;-0.49;100.00;97428.47;1621455;87;21369;-76
2022/01/30 08:16:41;;;;;;;;;;;;;;;-0.36;100.00;97419.62;1621712;88;20996;-76
2022/01/30 08:19:08;;;;;;;;;;;;;;;-0.20;100.00;97401.82;1621796;88;20468;-76
2022/01/30 08:21:34;;;;;;;;;;;;;;;-0.08;100.00;97407.53;1621775;88;20514;-76
2022/01/30 08:24:00;;;;;;;;;;;;;;;0.05;100.00;97407.27;1621612;87;20484;-77
2022/01/30 08:26:27;;;;;;;;;;;;;;;0.16;100.00;97401.92;1621639;88;21099;-77
2022/01/30 08:28:53;;;;;;;;;;;;;;;0.26;100.00;97411.96;1621851;87;20181;-76
2022/01/30 08:31:19;;;;;;;;;;;;;;;0.36;100.00;97405.56;1621582;88;20147;-76
2022/01/30 08:33:45;;;;;;;;;;;;;;;0.45;100.00;97406.45;1621916;88;20177;-76
2022/01/30 08:36:12;;;;;;;;;;;;;;;0.56;100.00;97421.34;1621546;87;20186;-75
2022/01/30 08:38:38;;;;;;;;;;;;;;;0.66;100.00;97407.59;1621819;88;21126;-75
2022/01/30 08:41:04;;;;;;;;;;;;;;;0.77;100.00;97401.42;1621707;88;20186;-76
2022/01/30 08:43:31;;;;;;;;;;;;;;;0.86;100.00;97402.84;1621618;88;20434;-75
2022/01/30 08:45:59;;;;;;;;;;;;;;;0.97;100.00;97392.06;1621773;88;20483;-76
2022/01/30 08:48:25;;;;;;;;;;;;;;;1.08;100.00;97386.66;1622095;88;20176;-76
2022/01/30 08:50:53;;;;;;;;;;;;;;;1.18;100.00;97389.09;1621575;88;21163;-77
2022/01/30 08:53:19;;;;;;;;;;;;;;;1.30;100.00;97392.60;1621874;87;20453;-77
2022/01/30 08:55:46;;;;;;;;;;;;;;;1.41;100.00;97376.93;1621674;88;20339;-74
2022/01/30 08:58:13;;;;;;;;;;;;;;;1.58;100.00;97386.50;1621599;88;20147;-77
2022/01/30 09:00:42;;;;;;;;;;;;;;;2.07;100.00;97381.94;1621320;88;20170;-78
2022/01/30 09:03:10;;;;;;;;;;;;;;;2.77;98.53;97387.19;1619484;87;21169;-76
2022/01/30 09:05:36;;;;;;;;;;;;;;;3.13;92.82;97376.02;1617559;87;20138;-77
2022/01/30 09:08:05;;;;;;;;;;;;;;;3.03;91.28;97380.96;1635634;86;20188;-76
2022/01/30 09:10:33;;;;;;;;;;;;;;;2.86;91.63;97400.75;1643865;85;20625;-87
2022/01/30 09:13:00;;;;;;;;;;;;;;;2.75;91.74;97383.20;1644017;87;20212;-89
2022/01/30 09:15:26;;;;;;;;;;;;;;;2.64;91.72;97378.09;1643834;87;21199;-84
2022/01/30 09:17:53;;;;;;;;;;;;;;;2.52;92.45;97381.17;1643777;87;20176;-82
2022/01/30 09:20:21;;;;;;;;;;;;;;;2.41;92.31;97371.74;1643760;85;20104;-79
2022/01/30 09:22:48;;;;;;;;;;;;;;;2.31;92.60;97367.45;1643471;85;20200;-75
2022/01/30 09:25:14;;;;;;;;;;;;;;;2.23;92.88;97368.22;1643796;87;20209;-84
2022/01/30 09:27:40;;;;;;;;;;;;;;;2.19;93.18;97357.78;1643448;87;21523;-81
2022/01/30 09:30:08;;;;;;;;;;;;;;;2.20;93.53;97359.38;1643680;87;20157;-73
2022/01/30 09:32:34;;;;;;;;;;;;;;;2.21;93.32;97371.24;1643650;87;20188;-73
2022/01/30 09:35:00;;;;;;;;;;;;;;;2.23;93.11;97356.04;1643758;87;20196;-80
2022/01/30 09:37:26;;;;;;;;;;;;;;;2.20;92.63;97348.55;1644081;87;20193;-74
2022/01/30 09:39:53;;;;;;;;;;;;;;;2.17;92.90;97343.76;1643185;87;21514;-76
2022/01/30 09:42:20;;;;;;;;;;;;;;;2.16;93.24;97343.52;1639980;87;20170;-76
2022/01/30 09:44:47;;;;;;;;;;;;;;;2.15;92.91;97335.95;1619364;87;20219;-79
2022/01/30 09:47:14;;;;;;;;;;;;;;;2.15;92.89;97340.57;1640994;86;20180;-75
2022/01/30 09:49:49;;;;;;;;;;;;;;;2.14;92.95;97334.36;1637909;86;20199;-72
2022/01/30 09:52:16;;;;;;;;;;;;;;;2.18;92.81;97339.38;1631149;86;21572;-74
2022/01/30 09:54:42;;;;;;;;;;;;;;;2.25;92.69;97330.25;1639253;87;20164;-72
2022/01/30 09:57:09;;;;;;;;;;;;;;;2.41;92.66;97337.34;1642735;87;20148;-74
2022/01/30 09:59:36;;;;;;;;;;;;;;;2.58;92.19;97324.38;1642409;87;20147;-78
2022/01/30 10:02:06;;;;;;;;;;;;;;;2.74;91.73;97329.57;1642806;87;20479;-74
2022/01/30 10:04:33;;;;;;;;;;;;;;;2.84;90.48;97320.33;1648271;87;21214;-76
2022/01/30 10:07:06;;;;;;;;;;;;;;;2.84;89.63;97326.55;1648789;85;20203;-73
2022/01/30 10:09:34;;;;;;;;;;;;;;;2.82;89.94;97324.71;1650107;87;20124;-73
2022/01/30 10:12:13;;;;;;;;;;;;;;;2.86;89.94;97325.67;1643737;85;20136;-75
2022/01/30 10:15:03;;;;;;;;;;;;;;;3.02;89.53;97319.17;1647072;85;20441;-79
2022/01/30 10:17:40;;;;;;;;;;;;;;;3.21;89.19;97323.70;1648910;87;22030;-77
2022/01/30 10:20:09;;;;;;;;;;;;;;;3.40;87.94;97317.13;1648987;87;20176;-74
2022/01/30 10:22:41;;;;;;;;;;;;;;;3.52;87.21;97315.31;1648727;85;20177;-74
2022/01/30 10:25:08;;;;;;;;;;;;;;;3.61;85.40;97322.06;1644865;87;20175;-75
2022/01/30 10:27:34;;;;;;;;;;;;;;;3.69;85.71;97312.31;1630695;85;20180;-77
2022/01/30 10:30:04;;;;;;;;;;;;;;;3.70;84.69;97307.91;1648819;87;21202;-76
2022/01/30 10:32:31;;;;;;;;;;;;;;;3.64;84.22;97301.87;1648808;87;20155;-77
2022/01/30 10:35:02;;;;;;;;;;;;;;;3.60;84.59;97309.06;1645189;87;20427;-80
2022/01/30 10:37:29;;;;;;;;;;;;;;;3.55;83.91;97298.95;1648057;87;20452;-85
2022/01/30 10:40:07;;;;;;;;;;;;;;;3.51;84.45;97307.50;1648142;87;20346;-83
2022/01/30 10:42:42;;;;;;;;;;;;;;;3.50;84.16;97299.92;1648438;87;20487;-81
2022/01/30 10:45:11;;;;;;;;;;;;;;;3.52;84.16;97296.88;1648569;87;20431;-83
2022/01/30 10:47:38;;;;;;;;;;;;;;;3.55;83.90;97289.45;1648494;87;20192;-77
2022/01/30 10:50:18;;;;;;;;;;;;;;;3.79;84.28;97292.39;1640044;85;20203;-71
2022/01/30 10:52:50;;;;;;;;;;;;;;;4.13;82.50;97289.25;1629633;85;20476;-71
2022/01/30 10:55:16;;;;;;;;;;;;;;;4.34;81.66;97298.23;1622987;88;21133;-78
2022/01/30 10:57:44;;;;;;;;;;;;;;;4.34;80.06;97298.23;1623437;87;20456;-73
2022/01/30 11:00:13;;;;;;;;;;;;;;;4.20;79.82;97303.91;1623466;86;20141;-75
2022/01/30 11:02:39;;;;;;;;;;;;;;;4.02;80.26;97290.22;1622148;87;20170;-73
2022/01/30 11:05:12;;;;;;;;;;;;;;;3.89;81.14;97285.80;1623650;88;20206;-73
2022/01/30 11:07:39;;;;;;;;;;;;;;;3.79;81.30;97276.67;1623461;87;21347;-75
2022/01/30 11:10:22;;;;;;;;;;;;;;;3.78;81.94;97274.52;1623342;87;20137;-74
2022/01/30 11:13:24;;;;;;;;;;;;;;;3.85;81.79;97274.80;1622593;87;20186;-76
2022/01/30 11:15:37;;;;;;;;;;;;;;;3.93;82.05;97270.46;1621037;88;20182;-75
2022/01/30 11:17:45;;;;;;;;;;;;;;;3.93;81.37;97275.33;1602637;88;20189;-79
2022/01/30 11:20:14;;;;;;;;;;;;;;;3.89;81.13;97270.88;1605164;88;21831;-85
2022/01/30 11:22:46;;;;;;;;;;;;;;;3.81;81.06;97261.66;1623252;88;20150;-78
2022/01/30 11:25:13;;;;;;;;;;;;;;;3.73;80.74;97258.42;1623486;88;20155;-78
2022/01/30 11:27:42;;;;;;;;;;;;;;;3.67;81.16;97267.06;1623431;88;20174;-79
2022/01/30 11:30:09;;;;;;;;;;;;;;;4.06;82.31;97263.17;1627552;85;20182;-75
2022/01/30 11:32:35;;;;;;;;;;;;;;;4.85;79.97;97262.25;1634436;87;21158;-77
2022/01/30 11:35:02;;;;;;;;;;;;;;;5.66;75.85;97256.67;1623331;87;20177;-88
2022/01/30 11:37:31;;;;;;;;;;;;;;;6.27;73.99;97250.65;1627245;88;21022;-85
2022/01/30 11:40:00;;;;;;;;;;;;;;;6.73;69.46;97253.92;1623452;87;20111;-80
2022/01/30 11:42:28;;;;;;;;;;;;;;;6.89;68.01;97265.69;1623353;88;20186;-73
2022/01/30 11:45:10;;;;;;;;;;;;;;;6.94;66.93;97262.11;1634693;85;21901;-73
2022/01/30 11:48:00;;;;;;;;;;;;;;;7.12;66.37;97263.98;1646026;87;20128;-73
2022/01/30 11:50:26;;;;;;;;;;;;;;;7.17;65.13;97247.36;1646817;87;20188;-74
2022/01/30 11:53:06;;;;;;;;;;;;;;;6.69;65.61;97253.03;1645087;85;20606;-75
2022/01/30 11:55:54;;;;;;;;;;;;;;;6.01;67.10;97242.84;1648614;87;20141;-72
2022/01/30 11:58:40;;;;;;;;;;;;;;;5.39;69.57;97247.21;1646003;87;23349;-76
2022/01/30 12:01:34;;;;;;;;;;;;;;;4.97;71.31;97248.70;1629370;87;20180;-74
2022/01/30 12:03:59;;;;;;;;;;;;;;;4.67;73.29;97256.17;1648847;86;20160;-76
2022/01/30 12:06:29;;;;;;;;;;;;;;;4.42;75.03;97252.55;1647966;87;20576;-75
2022/01/30 12:08:57;;;;;;;;;;;;;;;4.29;76.69;97250.89;1626885;87;20180;-90
2022/01/30 12:11:39;;;;;;;;;;;;;;;4.18;76.89;97251.05;1626486;88;21157;-78
2022/01/30 12:14:07;;;;;;;;;;;;;;;4.03;77.49;97235.35;1623464;88;20170;-76
2022/01/30 12:16:57;;;;;;;;;;;;;;;3.92;78.34;97235.73;1623320;88;20178;-76
2022/01/30 12:19:33;;;;;;;;;;;;;;;4.02;78.56;97235.13;1605974;88;20198;-74
2022/01/30 12:22:19;;;;;;;;;;;;;;;4.27;78.17;97238.20;1623441;88;20174;-75
2022/01/30 12:24:50;;;;;;;;;;;;;;;4.60;77.28;97241.78;1623464;88;21162;-75
2022/01/30 12:27:16;;;;;;;;;;;;;;;5.00;75.83;97230.93;1623342;88;20154;-75
2022/01/30 12:29:49;;;;;;;;;;;;;;;5.45;74.50;97242.58;1623542;88;20472;-75
2022/01/30 12:32:26;;;;;;;;;;;;;;;6.12;72.80;97240.45;1623241;88;20202;-75
2022/01/30 12:35:02;;;;;;;;;;;;;;;6.78;69.79;97234.02;1623633;88;20182;-75
2022/01/30 12:37:33;;;;;;;;;;;;;;;7.11;67.30;97245.23;1623438;88;22024;-75
2022/01/30 12:40:02;;;;;;;;;;;;;;;7.40;66.15;97232.56;1605099;88;20452;-75
2022/01/30 12:42:34;;;;;;;;;;;;;;;7.68;64.16;97230.30;1606294;88;20141;-75
2022/01/30 12:45:00;;;;;;;;;;;;;;;7.75;63.33;97217.61;1635516;87;20881;-75
2022/01/30 12:47:27;;;;;;;;;;;;;;;7.79;63.50;97223.95;1649986;87;20183;-76
2022/01/30 12:49:59;;;;;;;;;;;;;;;7.99;62.91;97226.77;1650066;87;21180;-75
2022/01/30 12:55:05;;;;;;;;;;;;;;;8.43;60.32;97230.11;1650233;86;20135;-74
2022/01/30 12:57:28;;;;;;;;;;;;;;;8.41;58.86;97216.80;1649494;87;20183;-74
2022/01/30 12:59:56;;;;;;;;;;;;;;;8.37;59.02;97219.23;1650237;87;20228;-74
2022/01/30 13:02:33;;;;;;;;;;;;;;;8.34;58.67;97215.27;1649906;87;21702;-73
2022/01/30 13:05:01;;;;;;;;;;;;;;;8.20;58.41;97226.66;1648465;87;20116;-74
2022/01/30 13:07:28;;;;;;;;;;;;;;;8.18;59.13;97225.42;1636002;87;20162;-73
2022/01/30 13:10:11;;;;;;;;;;;;;;;8.38;57.88;97231.18;1603561;88;20203;-73
2022/01/30 13:12:37;;;;;;;;;;;;;;;8.43;57.47;97235.58;1621621;88;20215;-73
2022/01/30 13:15:08;;;;;;;;;;;;;;;8.13;57.06;97225.13;1603235;88;21179;-73
2022/01/30 13:17:34;;;;;;;;;;;;;;;7.61;58.45;97226.25;1621528;88;20096;-73
2022/01/30 13:20:07;;;;;;;;;;;;;;;7.35;59.63;97230.66;1621697;88;20194;-73
2022/01/30 13:22:36;;;;;;;;;;;;;;;7.17;60.10;97243.26;1621402;87;20150;-74
2022/01/30 13:25:10;;;;;;;;;;;;;;;6.87;61.00;97242.06;1621634;88;20203;-74
2022/01/30 13:27:37;;;;;;;;;;;;;;;6.73;62.17;97234.84;1621531;88;21151;-74
2022/01/30 13:30:06;;;;;;;;;;;;;;;6.77;62.25;97231.08;1621626;87;20137;-74
2022/01/30 13:32:32;;;;;;;;;;;;;;;6.83;62.25;97228.89;1621603;88;20445;-75
2022/01/30 13:34:59;;;;;;;;;;;;;;;7.02;61.65;97236.40;1621402;88;20449;-74
2022/01/30 13:37:25;;;;;;;;;;;;;;;7.27;60.70;97220.92;1621656;87;20178;-74
2022/01/30 13:42:47;;;;;;;;;;;;;;;7.34;60.05;97218.16;1747648;80;21330;-74
2022/01/30 13:48:10;;;;;;;;;;;;;;;7.24;59.97;97211.27;1755890;81;20194;-75
2022/01/30 13:50:41;;;;;;;;;;;;;;;6.92;59.95;97203.63;1755969;81;20194;-73
2022/01/30 13:53:15;;;;;;;;;;;;;;;6.52;61.06;97211.27;1756012;81;21117;-73
2022/01/30 13:56:05;;;;;;;;;;;;;;;6.36;61.87;97207.69;1756202;81;20110;-73
2022/01/30 13:58:41;;;;;;;;;;;;;;;6.26;62.29;97197.30;1755910;81;20569;-74
2022/01/30 14:01:10;;;;;;;;;;;;;;;6.10;62.46;97200.50;1756202;81;20138;-74
2022/01/30 14:03:41;;;;;;;;;;;;;;;5.92;63.03;97204.83;1756086;81;20487;-73
2022/01/30 14:06:19;;;;;;;;;;;;;;;5.69;63.53;97200.19;1756437;81;21120;-74
2022/01/30 14:08:52;;;;;;;;;;;;;;;5.45;64.24;97188.72;1730487;81;20135;-73
2022/01/30 14:11:27;;;;;;;;;;;;;;;5.26;64.70;97203.66;1780213;80;20102;-74